Time;durP1;ratioP1;P1;durP2;ratioP2;P2;SDS_P1;SDS_P2;PMS_P1;PMS_P2;Temp;Humidity;BMP_temperature;BMP_pressure;BME280_temperature;BME280_humidity;BME280_pressure;Samples;Min_cycle;Max_cycle;Signal;HPM_P1;HPM_P2
2023/06/30 00:01:39;;;;;;;5.55;4.05;;;;;;;22.07;67.85;97669.22;5013923;28;20212;-76
2023/06/30 00:04:06;;;;;;;5.93;4.17;;;;;;;22.07;67.34;97665.72;5013787;28;20297;-76
2023/06/30 00:06:33;;;;;;;6.53;4.40;;;;;;;22.10;67.51;97673.22;5012732;28;20230;-76
2023/06/30 00:08:59;;;;;;;7.00;4.30;;;;;;;22.08;68.05;97668.13;5013253;28;20211;-76
2023/06/30 00:11:25;;;;;;;6.68;4.10;;;;;;;22.05;67.86;97665.22;5012597;28;20227;-76
2023/06/30 00:13:52;;;;;;;8.48;4.10;;;;;;;22.04;68.07;97660.91;5012850;28;20206;-76
2023/06/30 00:16:20;;;;;;;6.43;4.40;;;;;;;22.03;68.43;97651.19;5013617;28;20229;-76
2023/06/30 00:18:47;;;;;;;9.67;4.17;;;;;;;22.02;68.58;97657.72;5013686;28;20215;-76
2023/06/30 00:21:14;;;;;;;8.07;4.30;;;;;;;21.98;69.60;97656.72;5013692;28;20206;-77
2023/06/30 00:23:40;;;;;;;7.63;3.87;;;;;;;21.96;70.26;97651.59;5013065;28;20212;-76
2023/06/30 00:26:07;;;;;;;6.72;4.28;;;;;;;21.90;70.51;97644.69;5013579;28;20229;-76
2023/06/30 00:28:33;;;;;;;7.03;4.37;;;;;;;21.87;70.12;97652.56;5013310;28;20214;-76
2023/06/30 00:30:59;;;;;;;8.75;4.40;;;;;;;21.79;69.76;97651.38;5013079;28;20702;-76
2023/06/30 00:33:26;;;;;;;6.97;4.30;;;;;;;21.82;69.90;97641.84;5014801;28;20218;-76
2023/06/30 00:35:52;;;;;;;6.67;4.07;;;;;;;21.77;70.70;97631.13;5017386;28;20230;-76
2023/06/30 00:38:18;;;;;;;6.27;4.23;;;;;;;21.70;70.82;97625.34;5016475;28;20213;-76
2023/06/30 00:40:45;;;;;;;5.47;4.13;;;;;;;21.67;71.15;97624.00;5017359;28;20316;-76
2023/06/30 00:43:11;;;;;;;6.93;4.50;;;;;;;21.62;71.72;97626.00;5016516;28;20207;-76
2023/06/30 00:45:37;;;;;;;7.53;3.97;;;;;;;21.52;72.88;97623.50;5016930;28;20218;-76
2023/06/30 00:48:04;;;;;;;6.60;4.27;;;;;;;21.49;72.91;97619.47;5017259;28;20207;-76
2023/06/30 00:50:31;;;;;;;5.17;4.00;;;;;;;21.47;73.23;97616.25;5017192;28;20222;-76
2023/06/30 00:52:58;;;;;;;7.77;4.13;;;;;;;21.47;73.46;97604.66;5016083;28;20702;-76
2023/06/30 00:55:25;;;;;;;5.07;4.30;;;;;;;21.39;73.07;97600.72;5016856;28;20211;-76
2023/06/30 00:57:52;;;;;;;5.13;4.00;;;;;;;21.32;74.02;97607.63;5017089;28;20226;-76
2023/06/30 01:00:19;;;;;;;7.03;4.33;;;;;;;21.28;74.59;97603.91;5017082;28;20214;-76
2023/06/30 01:03:25;;;;;;;8.73;4.83;;;;;;;21.27;75.71;97600.41;5015980;28;20235;-76
2023/06/30 01:06:05;;;;;;;5.83;4.13;;;;;;;21.21;75.63;97606.19;5013743;28;20222;-76
2023/06/30 01:08:45;;;;;;;6.80;4.57;;;;;;;21.16;76.33;97592.78;5016905;28;20198;-76
2023/06/30 01:11:13;;;;;;;5.73;4.30;;;;;;;21.18;75.50;97601.38;5016789;28;20210;-76
2023/06/30 01:13:41;;;;;;;4.90;4.40;;;;;;;21.14;76.54;97595.78;5016775;28;20210;-76
2023/06/30 01:16:09;;;;;;;7.60;4.17;;;;;;;21.12;76.36;97594.47;5015954;28;20230;-76
2023/06/30 01:18:37;;;;;;;5.87;4.47;;;;;;;21.08;77.62;97596.16;5015784;28;20226;-76
2023/06/30 01:21:05;;;;;;;7.70;4.40;;;;;;;21.08;77.03;97596.16;5015507;28;20208;-76
2023/06/30 01:23:38;;;;;;;6.40;4.53;;;;;;;21.07;77.53;97587.22;5015650;28;20213;-76
2023/06/30 01:26:07;;;;;;;6.33;4.43;;;;;;;21.03;78.30;97588.13;5015658;28;20238;-76
2023/06/30 01:28:35;;;;;;;5.07;4.20;;;;;;;21.03;78.94;97588.13;5013712;28;20207;-76
2023/06/30 01:31:05;;;;;;;10.07;4.63;;;;;;;20.99;78.77;97592.53;5016405;28;20231;-76
2023/06/30 01:33:34;;;;;;;9.20;4.67;;;;;;;20.98;78.94;97589.00;5016467;28;20270;-76
2023/06/30 01:36:00;;;;;;;5.03;4.20;;;;;;;20.99;79.69;97584.41;5016289;28;20230;-76
2023/06/30 01:38:27;;;;;;;8.77;4.30;;;;;;;20.92;79.29;97586.69;5014615;28;20246;-76
2023/06/30 01:40:53;;;;;;;6.47;4.70;;;;;;;20.96;79.03;97593.09;5015974;28;20209;-76
2023/06/30 01:43:21;;;;;;;6.23;4.03;;;;;;;20.89;78.74;97582.66;5016239;28;20217;-76
2023/06/30 01:45:47;;;;;;;6.20;4.10;;;;;;;20.89;79.12;97584.56;5016042;28;20230;-76
2023/06/30 01:48:14;;;;;;;6.80;4.00;;;;;;;20.92;78.12;97579.41;5015397;28;20203;-76
2023/06/30 01:50:40;;;;;;;6.93;3.50;;;;;;;20.94;77.80;97579.88;5016016;28;20230;-76
2023/06/30 01:53:07;;;;;;;7.47;4.03;;;;;;;20.96;78.11;97579.59;5015736;28;20207;-76
2023/06/30 01:55:33;;;;;;;8.43;4.00;;;;;;;21.03;77.26;97572.72;5015945;28;20217;-76
2023/06/30 01:57:59;;;;;;;4.10;3.70;;;;;;;20.90;78.22;97567.25;5015089;28;20213;-76
2023/06/30 02:00:26;;;;;;;6.00;4.03;;;;;;;20.83;78.13;97564.94;5015434;28;20210;-76
2023/06/30 02:02:52;;;;;;;4.27;3.60;;;;;;;20.78;79.56;97564.19;5015282;28;20207;-76
2023/06/30 02:05:18;;;;;;;8.30;4.50;;;;;;;20.71;80.10;97559.19;5015788;28;20202;-76
2023/06/30 02:07:45;;;;;;;4.00;3.60;;;;;;;20.67;80.50;97573.59;5014516;28;20238;-76
2023/06/30 02:10:12;;;;;;;4.57;3.50;;;;;;;20.57;81.31;97562.94;5015537;28;20206;-76
2023/06/30 02:12:38;;;;;;;6.80;4.07;;;;;;;20.61;80.71;97566.66;5015753;28;20210;-76
2023/06/30 02:15:06;;;;;;;6.63;3.50;;;;;;;20.57;80.76;97571.03;5015603;28;20217;-76
2023/06/30 02:17:33;;;;;;;6.47;3.73;;;;;;;20.50;81.44;97568.72;5014753;28;20227;-76
2023/06/30 02:20:00;;;;;;;5.73;3.70;;;;;;;20.54;81.61;97568.94;5015281;28;20685;-76
2023/06/30 02:22:27;;;;;;;5.67;3.67;;;;;;;20.48;81.52;97570.09;5015167;28;20550;-76
2023/06/30 02:24:56;;;;;;;5.13;3.50;;;;;;;20.43;82.31;97568.28;5015508;28;20211;-76
2023/06/30 02:27:22;;;;;;;6.83;3.53;;;;;;;20.41;82.77;97583.97;5014613;28;20232;-76
2023/06/30 02:29:49;;;;;;;5.17;3.47;;;;;;;20.40;82.35;97571.59;5015371;28;20207;-76
2023/06/30 02:32:15;;;;;;;7.60;3.87;;;;;;;20.41;82.09;97575.06;5015196;28;20257;-76
2023/06/30 02:34:41;;;;;;;6.63;4.13;;;;;;;20.49;81.55;97574.41;5015182;28;20289;-76
2023/06/30 02:37:08;;;;;;;7.10;3.60;;;;;;;20.47;82.03;97577.41;5014151;28;20225;-76
2023/06/30 02:39:39;;;;;;;8.27;3.60;;;;;;;20.41;82.98;97580.47;5006779;28;20203;-76
2023/06/30 02:42:06;;;;;;;6.53;4.00;;;;;;;20.44;82.29;97577.97;5014886;28;20202;-76
2023/06/30 02:44:32;;;;;;;6.60;3.73;;;;;;;20.47;81.67;97580.09;5015096;28;20203;-76
2023/06/30 02:46:59;;;;;;;6.63;4.03;;;;;;;20.41;83.41;97583.16;5014947;28;20232;-76
2023/06/30 02:49:25;;;;;;;5.00;3.97;;;;;;;20.49;81.24;97580.63;5013760;28;20215;-77
2023/06/30 02:51:51;;;;;;;6.67;4.40;;;;;;;20.54;80.84;97582.44;5014452;28;20563;-76
2023/06/30 02:54:18;;;;;;;4.57;4.13;;;;;;;20.55;81.34;97573.22;5013915;28;20243;-76
2023/06/30 02:56:44;;;;;;;6.07;4.00;;;;;;;20.54;82.34;97569.75;5014292;28;20230;-76
2023/06/30 02:59:10;;;;;;;4.90;3.70;;;;;;;20.47;82.85;97573.88;5013788;28;20214;-76
2023/06/30 03:01:37;;;;;;;4.43;3.70;;;;;;;20.43;82.72;97576.38;5014717;28;20199;-76
2023/06/30 03:04:03;;;;;;;6.10;3.80;;;;;;;20.36;84.00;97577.84;5014036;28;20209;-76
2023/06/30 03:06:30;;;;;;;5.53;4.10;;;;;;;20.26;84.62;97575.28;5014299;28;20322;-76
2023/06/30 03:08:57;;;;;;;5.63;3.70;;;;;;;20.25;84.63;97569.09;5014074;28;20248;-76
2023/06/30 03:11:23;;;;;;;4.27;3.43;;;;;;;20.28;84.32;97575.78;5014527;28;20233;-76
2023/06/30 03:13:51;;;;;;;4.93;4.00;;;;;;;20.14;85.50;97570.34;5014501;28;20202;-76
2023/06/30 03:16:17;;;;;;;5.40;4.10;;;;;;;20.10;86.03;97563.09;5014042;28;20728;-77
2023/06/30 03:18:44;;;;;;;5.30;4.00;;;;;;;20.08;86.82;97557.16;5013462;28;20215;-76
2023/06/30 03:21:10;;;;;;;4.10;3.70;;;;;;;20.00;87.50;97549.72;5014452;28;20206;-77
2023/06/30 03:23:37;;;;;;;6.20;4.03;;;;;;;19.94;88.19;97546.28;5014207;28;20217;-76
2023/06/30 03:26:03;;;;;;;7.03;4.37;;;;;;;19.97;87.48;97532.22;5013828;28;20717;-76
2023/06/30 03:28:29;;;;;;;4.87;3.77;;;;;;;19.94;87.35;97530.09;5012854;28;20210;-76
2023/06/30 03:30:56;;;;;;;3.80;3.50;;;;;;;19.90;88.13;97541.78;5013912;28;20237;-76
2023/06/30 03:33:23;;;;;;;6.87;3.80;;;;;;;19.87;89.18;97540.47;5013935;28;20206;-76
2023/06/30 03:35:51;;;;;;;4.97;3.90;;;;;;;19.83;89.65;97534.03;5013684;28;20231;-76
2023/06/30 03:38:17;;;;;;;6.53;4.13;;;;;;;19.84;90.87;97538.31;5014060;28;20222;-76
2023/06/30 03:40:44;;;;;;;6.03;3.97;;;;;;;19.86;91.13;97540.75;5013514;28;20241;-77
2023/06/30 03:43:11;;;;;;;6.80;4.00;;;;;;;19.86;92.02;97535.34;5011889;28;20207;-76
2023/06/30 03:45:37;;;;;;;6.00;4.50;;;;;;;19.84;91.67;97532.94;4994110;28;20203;-76
2023/06/30 03:48:04;;;;;;;8.07;4.60;;;;;;;19.90;91.46;97537.16;4994283;28;20342;-76
2023/06/30 03:50:30;;;;;;;4.90;3.90;;;;;;;19.88;91.54;97530.44;4994193;28;20211;-76
2023/06/30 03:52:57;;;;;;;6.47;4.27;;;;;;;19.88;91.60;97533.97;4993931;28;20203;-76
2023/06/30 03:55:23;;;;;;;4.60;4.13;;;;;;;19.87;92.50;97535.06;5011880;28;20666;-76
2023/06/30 03:57:49;;;;;;;5.87;4.67;;;;;;;19.90;93.14;97545.25;5013820;28;20230;-76
2023/06/30 04:00:16;;;;;;;5.13;4.47;;;;;;;19.94;93.09;97546.28;5012653;28;20238;-76
2023/06/30 04:02:42;;;;;;;6.10;4.70;;;;;;;19.92;93.44;97544.97;5012624;28;20202;-76
2023/06/30 04:05:09;;;;;;;6.63;4.40;;;;;;;19.97;92.28;97551.09;5012109;28;20301;-76
2023/06/30 04:07:37;;;;;;;5.20;4.20;;;;;;;20.01;91.71;97538.63;5012784;28;20254;-76
2023/06/30 04:10:04;;;;;;;5.17;3.90;;;;;;;20.01;91.81;97549.44;5010952;28;20256;-76
2023/06/30 04:12:30;;;;;;;5.70;4.03;;;;;;;20.06;92.45;97551.25;5009308;28;20219;-77
2023/06/30 04:14:57;;;;;;;5.47;4.27;;;;;;;20.03;92.14;97549.94;5013374;28;20210;-76
2023/06/30 04:17:23;;;;;;;4.93;4.43;;;;;;;20.07;92.24;97550.16;5011752;28;20797;-76
2023/06/30 04:19:49;;;;;;;8.97;4.60;;;;;;;20.20;91.63;97541.34;5008855;28;20233;-76
2023/06/30 04:22:16;;;;;;;6.63;3.70;;;;;;;20.29;90.25;97545.00;5011515;28;20213;-76
2023/06/30 04:24:42;;;;;;;6.70;4.53;;;;;;;20.31;89.68;97545.53;5008750;28;20206;-76
2023/06/30 04:27:08;;;;;;;5.73;4.37;;;;;;;20.38;89.77;97544.06;5013170;28;20231;-76
2023/06/30 04:29:35;;;;;;;7.93;4.40;;;;;;;20.45;89.31;97552.59;5004364;28;20211;-76
2023/06/30 04:32:02;;;;;;;11.40;5.10;;;;;;;20.44;87.55;97552.88;5008132;28;20222;-76
2023/06/30 04:34:29;;;;;;;6.43;4.23;;;;;;;20.49;87.68;97555.50;5026155;28;20198;-76
2023/06/30 04:36:55;;;;;;;7.13;4.50;;;;;;;20.47;88.27;97554.97;5029723;28;20225;-76
2023/06/30 04:39:21;;;;;;;7.40;4.30;;;;;;;20.44;88.50;97555.59;5013022;28;20213;-76
2023/06/30 04:41:48;;;;;;;6.97;4.47;;;;;;;20.41;88.33;97554.28;5012257;28;20205;-76
2023/06/30 04:44:14;;;;;;;6.03;4.40;;;;;;;20.43;88.35;97554.00;5010773;28;20203;-76
2023/06/30 04:46:41;;;;;;;8.10;4.50;;;;;;;20.42;88.48;97555.06;5005501;28;20222;-76
2023/06/30 04:49:07;;;;;;;5.00;3.70;;;;;;;20.40;88.30;97551.88;5011874;28;20203;-76
2023/06/30 04:51:33;;;;;;;4.40;3.90;;;;;;;20.44;87.73;97547.47;5009115;28;20229;-76
2023/06/30 04:54:00;;;;;;;8.57;3.93;;;;;;;20.49;87.45;97550.09;5013584;28;20237;-76
2023/06/30 04:56:26;;;;;;;7.70;4.20;;;;;;;20.51;87.43;97546.00;5014014;28;20241;-76
2023/06/30 04:58:53;;;;;;;7.20;4.03;;;;;;;20.54;87.72;97552.72;5013587;28;20621;-76
2023/06/30 05:01:19;;;;;;;4.33;3.67;;;;;;;20.47;89.02;97550.38;5014468;28;20210;-76
2023/06/30 05:03:45;;;;;;;4.47;3.90;;;;;;;20.54;88.73;97558.13;5013769;28;20211;-76
2023/06/30 05:06:12;;;;;;;5.47;3.67;;;;;;;20.60;85.41;97555.03;5013770;28;20238;-76
2023/06/30 05:08:38;;;;;;;5.70;4.03;;;;;;;20.70;82.63;97557.56;5013582;28;20693;-76
2023/06/30 05:11:05;;;;;;;4.07;3.67;;;;;;;20.78;80.32;97553.41;5014238;28;20580;-76
2023/06/30 05:13:31;;;;;;;6.63;3.87;;;;;;;20.75;80.75;97554.78;5014668;28;20258;-76
2023/06/30 05:15:58;;;;;;;5.47;4.00;;;;;;;20.82;79.49;97555.22;5014408;28;20230;-76
2023/06/30 05:18:24;;;;;;;3.93;3.57;;;;;;;20.80;81.15;97562.81;5014248;28;20686;-76
2023/06/30 05:20:50;;;;;;;4.93;4.10;;;;;;;20.72;85.99;97557.28;5017247;28;20202;-76
2023/06/30 05:23:17;;;;;;;5.73;3.90;;;;;;;20.59;85.80;97560.75;5017198;28;20577;-76
2023/06/30 05:25:43;;;;;;;5.60;4.10;;;;;;;20.44;92.24;97569.88;5017354;28;20214;-76
2023/06/30 05:28:10;;;;;;;7.57;5.10;;;;;;;20.35;97.33;97568.94;5016811;28;20613;-77
2023/06/30 05:30:36;;;;;;;6.00;4.63;;;;;;;20.23;100.00;97579.38;5017829;28;20554;-76
2023/06/30 05:33:02;;;;;;;6.00;5.00;;;;;;;20.05;100.00;97582.84;5017034;28;20720;-77
2023/06/30 05:35:29;;;;;;;6.03;5.20;;;;;;;19.89;100.00;97578.72;5017294;28;20545;-76
2023/06/30 05:37:56;;;;;;;7.50;6.13;;;;;;;19.66;100.00;97578.78;5017241;28;20207;-75
2023/06/30 05:40:22;;;;;;;9.73;6.37;;;;;;;19.41;100.00;97575.25;5017333;28;20253;-75
2023/06/30 05:42:48;;;;;;;11.90;7.47;;;;;;;19.16;100.00;97575.50;5017174;28;20213;-75
2023/06/30 05:45:15;;;;;;;12.53;7.40;;;;;;;18.98;100.00;97576.22;5017040;28;20206;-75
2023/06/30 05:47:41;;;;;;;8.97;7.57;;;;;;;18.85;100.00;97578.75;5016504;28;20234;-75
2023/06/30 05:50:08;;;;;;;12.27;7.97;;;;;;;18.82;100.00;97580.13;5016478;28;20221;-75
2023/06/30 05:52:34;;;;;;;9.87;7.70;;;;;;;18.69;100.00;97591.53;5016844;28;20222;-75
2023/06/30 05:55:01;;;;;;;12.83;8.90;;;;;;;18.63;100.00;97603.44;5017023;28;20210;-75
2023/06/30 05:57:27;;;;;;;11.63;8.17;;;;;;;18.64;100.00;97605.03;5016860;28;20235;-75
2023/06/30 05:59:53;;;;;;;10.70;8.37;;;;;;;18.66;100.00;97615.53;5015288;28;20736;-75
2023/06/30 06:02:20;;;;;;;13.67;9.40;;;;;;;18.69;100.00;97618.47;5015645;28;20206;-75
2023/06/30 06:04:46;;;;;;;10.83;9.10;;;;;;;18.66;100.00;97619.03;5016917;28;20253;-75
2023/06/30 06:07:13;;;;;;;11.10;8.87;;;;;;;18.68;100.00;97616.88;5016395;28;20241;-75
2023/06/30 06:09:39;;;;;;;13.80;10.17;;;;;;;18.61;100.00;97607.50;5016324;28;20217;-76
2023/06/30 06:12:06;;;;;;;10.40;9.30;;;;;;;18.64;100.00;97607.75;5016199;28;20226;-75
2023/06/30 06:14:32;;;;;;;14.70;10.20;;;;;;;18.60;100.00;97605.91;5016468;28;20206;-75
2023/06/30 06:16:59;;;;;;;12.23;9.87;;;;;;;18.63;100.00;97614.22;5015676;28;20230;-75
2023/06/30 06:19:25;;;;;;;10.93;9.27;;;;;;;18.64;100.00;97615.81;5015066;28;20209;-75
2023/06/30 06:21:51;;;;;;;10.43;8.87;;;;;;;18.72;100.00;97617.91;5015206;28;20209;-75
2023/06/30 06:24:18;;;;;;;12.57;9.73;;;;;;;18.71;100.00;97618.19;5015139;28;20207;-75
2023/06/30 06:26:44;;;;;;;11.53;9.73;;;;;;;18.76;100.00;97612.75;5015465;28;20223;-75
2023/06/30 06:29:14;;;;;;;11.37;10.17;;;;;;;18.71;100.00;97620.88;5016012;28;20209;-75
2023/06/30 06:31:41;;;;;;;14.40;13.10;;;;;;;18.77;100.00;97628.66;5014471;28;20219;-75
2023/06/30 06:34:07;;;;;;;16.37;11.03;;;;;;;18.77;100.00;97622.47;5016098;28;20211;-77
2023/06/30 06:36:33;;;;;;;11.50;10.23;;;;;;;18.90;100.00;97627.19;5015979;28;20276;-75
2023/06/30 06:39:00;;;;;;;11.27;9.53;;;;;;;18.84;100.00;97621.06;5015990;28;20207;-73
2023/06/30 06:41:26;;;;;;;11.33;10.23;;;;;;;18.81;100.00;97616.22;5015997;28;20210;-73
2023/06/30 06:43:52;;;;;;;14.10;10.87;;;;;;;18.88;100.00;97624.81;5015793;28;20213;-74
2023/06/30 06:46:19;;;;;;;16.10;11.27;;;;;;;19.05;100.00;97621.69;5016011;28;20229;-74
2023/06/30 06:48:45;;;;;;;11.63;10.37;;;;;;;18.98;100.00;97630.09;5016125;28;20209;-74
2023/06/30 06:51:12;;;;;;;11.67;9.90;;;;;;;18.97;100.00;97623.13;5015711;28;20206;-71
2023/06/30 06:53:38;;;;;;;11.00;9.40;;;;;;;19.03;100.00;97629.25;5015173;28;20238;-71
2023/06/30 06:56:05;;;;;;;11.60;10.40;;;;;;;19.10;100.00;97624.34;5015007;28;20227;-71
2023/06/30 06:58:35;;;;;;;12.13;10.00;;;;;;;19.06;100.00;97629.50;5015343;28;20210;-71
2023/06/30 07:01:01;;;;;;;11.70;10.50;;;;;;;19.08;100.00;97627.31;5014997;28;20319;-71
2023/06/30 07:03:28;;;;;;;15.23;10.90;;;;;;;19.14;100.00;97628.88;5014928;28;20202;-71
2023/06/30 07:05:55;;;;;;;12.53;11.33;;;;;;;19.17;100.00;97644.47;5014905;28;20227;-71
2023/06/30 07:08:21;;;;;;;13.60;12.20;;;;;;;19.31;100.00;97631.97;5015467;28;20198;-71
2023/06/30 07:10:50;;;;;;;11.87;10.77;;;;;;;19.32;100.00;97633.56;5014819;28;20218;-71
2023/06/30 07:13:21;;;;;;;10.97;9.90;;;;;;;19.35;100.00;97633.00;5014158;28;20210;-71
2023/06/30 07:15:48;;;;;;;12.43;11.13;;;;;;;19.41;100.00;97629.16;5014561;28;20223;-71
2023/06/30 07:18:17;;;;;;;12.77;11.27;;;;;;;19.48;100.00;97632.34;5014202;28;20199;-71
2023/06/30 07:20:45;;;;;;;12.37;11.03;;;;;;;19.59;100.00;97635.75;5014367;28;20289;-71
2023/06/30 07:23:11;;;;;;;13.00;10.70;;;;;;;19.58;100.00;97631.41;5014326;28;20194;-71
2023/06/30 07:25:38;;;;;;;12.07;10.73;;;;;;;19.61;100.00;97620.06;5014268;28;20214;-71
2023/06/30 07:28:04;;;;;;;12.93;11.30;;;;;;;19.63;100.00;97626.00;5013891;28;20666;-71
2023/06/30 07:30:30;;;;;;;13.60;12.30;;;;;;;19.66;100.00;97625.41;5013806;28;20697;-71
2023/06/30 07:32:58;;;;;;;14.03;12.60;;;;;;;19.53;100.00;97639.56;5013938;28;20310;-71
2023/06/30 07:35:25;;;;;;;13.97;12.50;;;;;;;19.45;100.00;97648.31;5013917;28;20198;-71
2023/06/30 07:37:52;;;;;;;14.20;12.60;;;;;;;19.50;100.00;97654.41;5013993;28;20206;-71
2023/06/30 07:40:19;;;;;;;13.40;11.33;;;;;;;19.49;100.00;97663.59;5011277;28;20213;-71
2023/06/30 07:42:45;;;;;;;13.60;11.47;;;;;;;19.47;100.00;97664.97;5014122;28;20202;-71
2023/06/30 07:45:13;;;;;;;12.93;10.93;;;;;;;19.46;100.00;97674.16;5014092;28;20206;-71
2023/06/30 07:47:41;;;;;;;12.10;10.60;;;;;;;19.36;100.00;97680.44;5014373;28;20238;-72
2023/06/30 07:50:11;;;;;;;12.73;10.87;;;;;;;19.35;100.00;97680.72;5014476;28;20206;-71
2023/06/30 07:52:43;;;;;;;11.10;9.97;;;;;;;19.33;100.00;97681.03;5014149;28;20574;-71
2023/06/30 07:55:12;;;;;;;12.10;10.07;;;;;;;19.29;100.00;97682.69;5013986;28;20197;-71
2023/06/30 07:57:39;;;;;;;12.40;10.80;;;;;;;19.37;100.00;97679.34;5014012;28;20269;-71
2023/06/30 08:00:06;;;;;;;12.03;10.83;;;;;;;19.33;100.00;97682.91;5014595;28;20214;-71
2023/06/30 08:02:32;;;;;;;13.60;11.23;;;;;;;19.25;100.00;97692.41;5014192;28;20289;-71
2023/06/30 08:04:59;;;;;;;13.77;11.23;;;;;;;19.19;100.00;97698.88;5014683;28;20214;-71
2023/06/30 08:07:25;;;;;;;14.67;12.20;;;;;;;19.24;100.00;97700.78;5014858;28;20238;-71
2023/06/30 08:09:51;;;;;;;19.57;12.70;;;;;;;19.22;100.00;97701.06;5014122;28;20559;-71
2023/06/30 08:12:18;;;;;;;14.40;12.43;;;;;;;19.21;100.00;97699.41;5013839;28;20245;-71
2023/06/30 08:14:48;;;;;;;16.13;13.53;;;;;;;19.21;100.00;97706.69;5013424;28;20673;-71
2023/06/30 08:17:15;;;;;;;18.33;14.17;;;;;;;19.10;100.00;97703.25;5013396;28;20337;-71
2023/06/30 08:19:41;;;;;;;16.87;13.80;;;;;;;19.08;100.00;97701.94;5013594;28;20231;-71
2023/06/30 08:22:08;;;;;;;16.47;14.73;;;;;;;18.97;100.00;97706.63;5013840;28;20210;-71
2023/06/30 08:24:35;;;;;;;17.37;14.20;;;;;;;18.92;100.00;97708.53;5013925;28;20203;-71
2023/06/30 08:27:01;;;;;;;16.47;14.40;;;;;;;18.87;100.00;97708.59;5013607;28;20714;-71
2023/06/30 08:29:28;;;;;;;22.23;16.67;;;;;;;18.83;100.00;97708.31;5014061;28;20297;-71
2023/06/30 08:31:54;;;;;;;18.67;16.60;;;;;;;18.79;100.00;97704.59;5013956;28;20202;-71
2023/06/30 08:34:23;;;;;;;19.07;16.97;;;;;;;18.77;100.00;97709.44;5013680;28;20210;-71
2023/06/30 08:36:50;;;;;;;25.57;18.37;;;;;;;18.68;100.00;97707.63;5013802;28;20229;-71
2023/06/30 08:39:16;;;;;;;21.20;17.43;;;;;;;18.67;100.00;97706.00;5014076;28;20213;-71
2023/06/30 08:41:43;;;;;;;20.43;17.53;;;;;;;18.52;100.00;97706.91;5013885;28;20211;-71
2023/06/30 08:44:11;;;;;;;20.17;17.50;;;;;;;18.40;100.00;97711.81;5013605;28;20630;-71
2023/06/30 08:46:38;;;;;;;17.97;16.13;;;;;;;18.29;100.00;97709.41;5013676;28;20579;-71
2023/06/30 08:49:06;;;;;;;19.43;17.10;;;;;;;18.30;100.00;97706.44;5014009;28;20574;-71
2023/06/30 08:51:33;;;;;;;20.07;17.57;;;;;;;18.32;100.00;97709.66;5014080;28;20215;-71
2023/06/30 08:53:59;;;;;;;22.20;18.17;;;;;;;18.19;100.00;97707.56;5014514;28;20230;-72
2023/06/30 08:56:26;;;;;;;23.73;19.20;;;;;;;18.28;100.00;97702.44;5017966;28;20265;-73
2023/06/30 08:58:53;;;;;;;21.20;17.77;;;;;;;18.28;100.00;97705.91;5018001;28;20206;-73
2023/06/30 09:01:20;;;;;;;21.60;18.73;;;;;;;18.28;100.00;97697.84;5017913;28;20206;-73
2023/06/30 09:03:46;;;;;;;26.37;17.80;;;;;;;18.32;100.00;97698.91;5017288;28;20697;-73
2023/06/30 09:06:14;;;;;;;22.23;18.17;;;;;;;18.33;100.00;97694.38;5017437;28;20241;-72
2023/06/30 09:09:03;;;;;;;21.00;17.30;;;;;;;18.22;100.00;97696.25;5016432;28;20203;-72
2023/06/30 09:11:30;;;;;;;20.80;17.50;;;;;;;18.34;100.00;97695.97;5017522;28;20673;-72
2023/06/30 09:14:01;;;;;;;19.87;17.67;;;;;;;18.37;100.00;97698.09;5017641;28;20223;-73
2023/06/30 09:16:29;;;;;;;21.93;18.53;;;;;;;18.41;100.00;97702.66;5017891;28;20237;-73
2023/06/30 09:18:56;;;;;;;19.33;16.87;;;;;;;18.34;100.00;97696.78;5017698;28;20210;-72
2023/06/30 09:21:23;;;;;;;19.77;17.63;;;;;;;18.43;100.00;97692.44;5017532;28;20212;-71
2023/06/30 09:23:50;;;;;;;21.10;18.27;;;;;;;18.49;100.00;97694.00;5016974;28;20203;-71
2023/06/30 09:26:18;;;;;;;21.27;18.57;;;;;;;18.46;100.00;97683.00;5017153;28;20264;-71
2023/06/30 09:28:45;;;;;;;23.10;18.37;;;;;;;18.48;100.00;97689.69;5016443;28;20215;-71
2023/06/30 09:31:12;;;;;;;19.77;17.33;;;;;;;18.43;100.00;97680.84;5016470;28;20217;-71
2023/06/30 09:33:40;;;;;;;23.13;18.60;;;;;;;18.49;100.00;97685.91;5016632;28;20241;-71
2023/06/30 09:36:07;;;;;;;20.67;17.47;;;;;;;18.43;100.00;97689.75;5016184;28;20222;-71
2023/06/30 09:38:35;;;;;;;22.73;16.80;;;;;;;18.45;100.00;97687.56;5016748;28;20209;-71
2023/06/30 09:41:05;;;;;;;19.60;17.50;;;;;;;18.48;100.00;97692.41;5017155;28;20210;-71
2023/06/30 09:43:33;;;;;;;20.33;17.80;;;;;;;18.55;100.00;97690.19;5016598;28;20206;-72
2023/06/30 09:46:01;;;;;;;20.27;17.87;;;;;;;18.51;100.00;97693.72;5016638;28;20275;-71
2023/06/30 09:48:38;;;;;;;19.43;16.53;;;;;;;18.49;100.00;97694.00;5016561;28;20202;-71
2023/06/30 09:51:06;;;;;;;20.73;17.47;;;;;;;18.56;100.00;97683.75;5016496;28;20190;-71
2023/06/30 09:53:37;;;;;;;18.03;15.73;;;;;;;18.56;100.00;97683.75;5016430;28;20231;-71
2023/06/30 09:56:04;;;;;;;18.47;16.47;;;;;;;18.60;100.00;97686.66;5016196;28;20230;-71
2023/06/30 09:58:31;;;;;;;16.50;14.80;;;;;;;18.58;100.00;97686.94;5016015;28;20207;-71
2023/06/30 10:00:58;;;;;;;18.30;16.27;;;;;;;18.60;100.00;97684.75;5015838;28;20195;-71
2023/06/30 10:03:25;;;;;;;23.30;18.77;;;;;;;18.68;100.00;97683.41;4996730;28;20211;-71
2023/06/30 10:05:52;;;;;;;16.83;15.07;;;;;;;18.73;100.00;97686.84;5003179;28;20712;-71
2023/06/30 10:08:22;;;;;;;17.50;15.70;;;;;;;18.76;100.00;97690.88;5016684;28;20201;-72
2023/06/30 10:10:48;;;;;;;15.93;14.33;;;;;;;18.76;100.00;97689.00;5016322;28;20199;-72
2023/06/30 10:13:18;;;;;;;17.10;15.30;;;;;;;18.84;100.00;97688.41;5012880;28;20214;-72
2023/06/30 10:15:46;;;;;;;18.47;15.37;;;;;;;18.85;100.00;97686.50;5015753;28;20202;-71
2023/06/30 10:18:14;;;;;;;18.63;15.83;;;;;;;18.94;100.00;97685.63;5015136;28;20203;-71
2023/06/30 10:20:42;;;;;;;17.77;15.20;;;;;;;18.98;100.00;97686.69;5015529;28;20202;-71
2023/06/30 10:23:08;;;;;;;21.67;16.83;;;;;;;19.04;100.00;97690.94;5011947;28;20201;-72
2023/06/30 10:25:38;;;;;;;19.10;17.13;;;;;;;18.98;100.00;97692.06;5014860;28;20569;-72
2023/06/30 10:28:08;;;;;;;17.57;15.60;;;;;;;19.11;100.00;97691.44;5015414;28;20215;-72
2023/06/30 10:30:35;;;;;;;16.90;15.10;;;;;;;19.17;100.00;97689.47;5015087;28;20206;-72
2023/06/30 10:33:02;;;;;;;18.50;16.40;;;;;;;19.19;100.00;97698.88;5014858;28;20229;-72
2023/06/30 10:35:29;;;;;;;18.17;16.27;;;;;;;19.09;100.00;97696.28;5012706;28;20208;-71
2023/06/30 10:37:56;;;;;;;20.00;17.57;;;;;;;19.24;100.00;97698.91;5015343;28;20202;-71
2023/06/30 10:40:30;;;;;;;19.50;17.33;;;;;;;19.29;100.00;97696.16;5015256;28;20214;-71
2023/06/30 10:42:58;;;;;;;21.60;19.00;;;;;;;19.29;100.00;97695.34;5015320;28;20202;-71
2023/06/30 10:45:34;;;;;;;21.03;19.03;;;;;;;19.29;100.00;97682.69;5015039;28;20210;-71
2023/06/30 10:48:14;;;;;;;25.87;23.17;;;;;;;19.28;100.00;97689.13;5015263;28;20205;-71
2023/06/30 10:50:45;;;;;;;23.00;20.67;;;;;;;19.18;100.00;97691.09;5015203;28;20191;-70
2023/06/30 10:53:18;;;;;;;24.27;21.50;;;;;;;19.35;100.00;97686.13;5015053;28;20238;-70
2023/06/30 10:55:45;;;;;;;22.30;19.83;;;;;;;19.34;100.00;97684.50;5014734;28;20506;-70
2023/06/30 10:58:12;;;;;;;22.83;20.40;;;;;;;19.37;100.00;97692.03;5014666;28;20203;-70
2023/06/30 11:00:38;;;;;;;35.23;31.50;;;;;;;19.44;100.00;97698.72;5014617;28;20199;-70
2023/06/30 11:03:06;;;;;;;25.10;22.40;;;;;;;19.35;100.00;97708.50;5014831;28;20207;-71
2023/06/30 11:05:34;;;;;;;26.47;23.80;;;;;;;19.43;100.00;97705.19;5014291;28;20213;-70
2023/06/30 11:08:09;;;;;;;27.63;24.70;;;;;;;19.40;100.00;97719.22;5013847;28;20301;-69
2023/06/30 11:10:38;;;;;;;29.37;26.40;;;;;;;19.41;100.00;97710.03;5014262;28;20197;-71
2023/06/30 11:13:09;;;;;;;29.13;26.03;;;;;;;19.29;100.00;97696.16;5014770;28;20230;-70
2023/06/30 11:15:56;;;;;;;27.57;24.60;;;;;;;19.33;100.00;97689.13;5014826;28;20206;-70
2023/06/30 11:18:23;;;;;;;29.53;26.33;;;;;;;19.36;100.00;97680.44;5014361;28;20210;-71
2023/06/30 11:21:00;;;;;;;27.70;24.70;;;;;;;19.35;100.00;97683.41;5014960;28;20217;-70
2023/06/30 11:23:28;;;;;;;29.23;26.13;;;;;;;19.37;100.00;97682.03;5014653;28;20214;-69